createdAt,value
2022-11-05T00:11:18.386Z,14.534889688250496
2022-11-05T00:25:14.923Z,14.450747484261228
2022-11-05T00:27:16.489Z,14.265121065950462
2022-11-05T00:31:17.345Z,14.263836455382352
2022-11-05T00:34:17.690Z,14.125740925391801
2022-11-05T00:37:17.415Z,14.094910324144076
2022-11-05T00:41:16.461Z,14.117390969852659
2022-11-05T00:45:21.524Z,14.069860468345087
2022-11-05T00:51:16.672Z,14.051233656978365
2022-11-05T00:54:16.921Z,14.02297229531141
2022-11-05T00:57:17.070Z,14.039672189777775
2022-11-05T01:01:16.988Z,14.103260277614117
2022-11-05T01:04:17.229Z,14.026826116838492
2022-11-05T01:07:17.051Z,14.012695438706213
2022-11-05T01:11:33.927Z,14.04224140458391
2022-11-05T01:14:16.914Z,14.004345493571691
2022-11-05T01:17:17.313Z,13.920203781646341
2022-11-05T01:21:16.003Z,13.893227066099644
2022-11-05T01:24:16.279Z,13.868177265989015
2022-11-05T01:27:17.110Z,13.852119705453514
2022-11-05T01:31:16.678Z,13.820646895048503
2022-11-05T01:34:17.155Z,13.79110100133921
2022-11-05T01:37:17.068Z,13.758985910395221
2022-11-05T01:41:16.313Z,13.685763545552708
2022-11-05T01:45:23.988Z,13.565653303134969
2022-11-05T01:47:27.105Z,13.635664066817208
2022-11-05T01:51:21.182Z,13.602906730295217
2022-11-05T01:54:21.142Z,13.593272221804455
2022-11-05T01:57:17.082Z,13.557303399145985
2022-11-05T02:01:17.639Z,13.571434006346772
2022-11-05T02:04:24.260Z,13.577857010347453
2022-11-05T02:07:17.885Z,13.570149405601205
2022-11-05T02:11:18.754Z,13.527115291136216
2022-11-05T02:14:16.845Z,13.493715693979539
2022-11-05T02:17:23.255Z,13.424989638513306
2022-11-05T02:31:25.406Z,13.385809387202972
2022-11-05T02:34:26.695Z,13.353052140898308
2022-11-05T02:37:24.260Z,13.306164338338203
2022-11-05T02:41:25.316Z,13.323506399474809
2022-11-05T02:44:25.820Z,13.266341840126552
2022-11-05T02:47:28.716Z,13.296529861361432
2022-11-05T02:51:24.894Z,13.313871920656311
2022-11-05T02:54:22.817Z,13.276618612185121
2022-11-05T02:57:20.004Z,13.2515689823319
2022-11-05T03:01:18.447Z,13.329929385922242
2022-11-05T03:04:20.991Z,13.32543329536129
2022-11-05T03:07:34.516Z,13.266984138346107
2022-11-05T03:11:19.996Z,13.265057243701085
2022-11-05T03:14:24.225Z,13.19890055238002
2022-11-05T03:17:26.762Z,13.155866614020487
2022-11-05T03:21:21.018Z,13.202112041135843
2022-11-05T03:24:21.952Z,13.18926608679467
2022-11-05T03:27:19.481Z,13.155224316587645
2022-11-05T03:31:16.808Z,13.196973659181094
2022-11-05T03:34:19.677Z,13.158435803797328
2022-11-05T03:37:19.367Z,13.171281753772927
2022-11-05T03:41:18.469Z,13.217527188746317
2022-11-05T03:44:21.228Z,13.172566348870532
2022-11-05T03:47:20.544Z,13.144305260925103
2022-11-05T03:51:22.752Z,13.17513553912031
2022-11-05T03:54:17.219Z,13.200185147868705
2022-11-05T03:57:22.987Z,13.192477575209432
2022-11-05T04:01:16.374Z,13.229088551173117
2022-11-05T04:04:16.868Z,13.164858778557754
2022-11-05T04:31:16.672Z,13.12953242300291
2022-11-05T04:34:20.237Z,13.04539152244688
2022-11-05T04:37:17.140Z,13.05374137931949
2022-11-05T04:41:17.280Z,13.059522049912266
2022-11-05T04:44:17.014Z,12.99914617522154
2022-11-05T04:47:16.864Z,12.929135902752842
2022-11-05T04:51:16.464Z,12.919501465816575
2022-11-05T04:54:17.110Z,12.926566719469793
2022-11-05T04:57:17.240Z,12.839856826333563
2022-11-05T05:01:18.539Z,12.823157152728891
2022-11-05T05:04:16.969Z,12.75828537289135
2022-11-05T05:07:16.963Z,12.717178526509906
2022-11-05T05:11:18.874Z,12.711397877731361
2022-11-05T05:14:16.716Z,12.69919428707517
2022-11-05T05:17:16.889Z,12.566239484717153
2022-11-05T05:21:48.883Z,12.57523159081029
2022-11-05T05:24:19.300Z,12.44548843209959
2022-11-05T05:27:16.955Z,12.426861954249125
2022-11-05T05:31:16.287Z,12.416585278451475
2022-11-05T05:34:16.787Z,12.33822566377503
2022-11-05T05:37:17.971Z,12.259866116783178
2022-11-05T05:41:17.082Z,12.273354230705081
2022-11-05T05:44:16.992Z,12.21040971622715
2022-11-05T05:47:16.548Z,12.131407989454692
2022-11-05T05:51:17.036Z,12.197563902311959
2022-11-05T05:54:16.611Z,12.089016847354014
2022-11-05T05:57:17.018Z,12.04855259382748
2022-11-05T06:01:21.196Z,12.058186938268136
2022-11-05T06:04:18.715Z,12.062682966023932
2022-11-05T06:07:18.458Z,12.00230775475502
2022-11-05T06:11:16.469Z,11.950282338976923
2022-11-05T06:14:17.129Z,11.892476356438511
2022-11-05T06:17:16.596Z,11.855223631653734
2022-11-05T06:21:16.959Z,11.852654478784189
2022-11-05T06:24:16.574Z,11.807052027457393
2022-11-05T06:27:16.240Z,11.840451003647468
2022-11-05T06:31:16.556Z,11.795490846256508
2022-11-05T06:34:16.615Z,11.695936291330236
2022-11-05T06:37:16.770Z,11.725481502682033
2022-11-05T06:41:17.461Z,11.720343204364417
2022-11-05T06:44:18.536Z,11.733831238068888
2022-11-05T06:47:18.234Z,11.719058629830489
2022-11-05T06:51:15.798Z,11.757595873760966
2022-11-05T06:54:16.202Z,11.775579926531009
2022-11-05T06:57:16.759Z,11.784571954252987
2022-11-05T07:01:17.289Z,11.859077361094478
2022-11-05T07:04:16.893Z,11.87834601075383
2022-11-05T07:07:16.717Z,11.896972375981568
2022-11-05T07:11:15.957Z,11.970193297046716
2022-11-05T07:14:16.814Z,11.965697273874776
2022-11-05T07:17:17.099Z,11.972762453245014
2022-11-05T07:21:16.715Z,12.03185306588748
2022-11-05T07:24:17.244Z,12.024787881915199
2022-11-05T07:27:17.472Z,12.04855259382748
2022-11-05T07:31:22.404Z,12.079382499639177
2022-11-05T07:34:17.761Z,12.101862645898745
2022-11-05T07:37:17.551Z,12.110212415928254
2022-11-05T07:41:16.108Z,12.136546311055373
2022-11-05T07:44:17.687Z,12.16416479464533
2022-11-05T07:47:16.163Z,12.207840553298592
2022-11-05T07:51:16.621Z,12.282988599019973
2022-11-05T07:54:16.716Z,12.284273181539266
2022-11-05T07:57:16.473Z,12.319599207947977
2022-11-05T08:01:17.140Z,12.431358000276669
2022-11-05T08:04:17.108Z,12.457691988626994
2022-11-05T08:07:18.328Z,12.51999438174571
2022-11-05T08:11:16.536Z,12.597069566461505
2022-11-05T08:14:17.395Z,12.68185234528246
2022-11-05T08:17:18.534Z,12.753147016075037
2022-11-05T08:21:16.451Z,12.868760114837006
2022-11-05T08:24:16.829Z,12.968315956834704
2022-11-05T08:27:16.959Z,13.050529895815998
2022-11-05T08:31:18.820Z,13.200185147868705
2022-11-05T08:34:16.939Z,13.30809123385634
2022-11-05T08:37:17.409Z,13.418566645335613
2022-11-05T08:41:16.367Z,13.54381509432569
2022-11-05T08:44:17.283Z,13.646583181619643
2022-11-05T08:47:16.312Z,13.774401152629526
2022-11-05T08:51:16.781Z,13.929196021944517
2022-11-05T08:54:17.050Z,14.01976077749723
2022-11-05T08:57:17.002Z,14.123814012506864
2022-11-05T09:01:20.115Z,14.303017085892861
2022-11-05T09:04:16.366Z,14.412851402609613
2022-11-05T09:07:16.481Z,14.549020447718885
2022-11-05T09:11:17.358Z,14.699962788453558
2022-11-05T09:14:17.567Z,14.818147605005652
2022-11-05T09:17:18.697Z,14.988359703732659
2022-11-05T09:21:16.540Z,15.234364923933754
2022-11-05T09:24:16.715Z,15.342273429431952
2022-11-05T09:27:16.211Z,15.442474299461173
2022-11-05T09:31:15.908Z,15.558733139916967
2022-11-05T09:34:16.858Z,15.648014892010542
2022-11-05T09:37:16.434Z,15.707107898552204
2022-11-05T09:41:24.253Z,15.807951487733316
2022-11-05T09:44:20.653Z,15.938341772393324
2022-11-05T09:47:21.013Z,16.02826621582644
2022-11-05T09:51:23.672Z,16.1214023404872
2022-11-05T09:54:31.218Z,16.212611603508503
2022-11-05T09:57:23.112Z,16.31474039416098
2022-11-05T10:01:21.480Z,16.431000352376667
2022-11-05T10:04:21.494Z,16.477247448996877
2022-11-05T10:07:22.931Z,16.578734215874373
2022-11-05T10:11:24.675Z,16.69563683487513
2022-11-05T10:14:22.799Z,16.73160690179511
2022-11-05T10:17:21.071Z,16.81382425116326
2022-11-05T10:21:37.814Z,16.93458111812588
2022-11-05T10:24:19.235Z,17.005236806307312
2022-11-05T10:27:21.308Z,17.102870211434585
2022-11-05T10:31:22.714Z,17.2403279467414
2022-11-05T10:34:18.393Z,17.303275951123304
2022-11-05T10:37:19.654Z,17.347596511021038
2022-11-05T10:41:35.415Z,17.440733990055833
2022-11-05T10:44:27.941Z,17.52680595223874
2022-11-05T10:47:45.240Z,17.58333086734574
2022-11-05T10:51:18.055Z,17.694453814483495
2022-11-05T10:54:21.230Z,17.754190483932415
2022-11-05T10:57:35.994Z,17.80878854955081
2022-11-05T11:01:17.269Z,17.9051381572619
2022-11-05T11:04:25.422Z,17.937254715902963
2022-11-05T11:07:43.796Z,17.98928356502811
2022-11-05T11:11:29.958Z,18.06507873196033
2022-11-05T11:14:19.888Z,18.112611326579007
2022-11-05T11:17:26.242Z,18.12353098021158
2022-11-05T11:21:18.177Z,18.22373492196821
2022-11-05T11:24:20.612Z,18.251355258703644
2022-11-05T11:27:21.290Z,18.246858924243497
2022-11-05T11:31:20.775Z,18.279617937555393
2022-11-05T11:34:44.251Z,18.31944263633495
2022-11-05T11:37:21.988Z,18.33100464893223
2022-11-05T11:41:24.692Z,18.372756373355877
2022-11-05T11:44:19.223Z,18.357340349792867
2022-11-05T11:47:20.395Z,18.41258111301722
2022-11-05T11:51:19.765Z,18.421573798585815
2022-11-05T11:54:19.695Z,18.467821909874694
2022-11-05T11:57:24.664Z,18.496726991401466
2022-11-05T12:02:23.739Z,18.436347498240593
2022-11-05T12:04:38.072Z,18.461398559674855
2022-11-05T12:07:27.593Z,18.479383941380366
2022-11-05T12:11:24.323Z,18.45754454977323
2022-11-05T12:14:26.473Z,18.463325564687057
2022-11-05T12:31:43.516Z,18.452405870159055
2022-11-05T12:34:31.997Z,18.420931463872783
2022-11-05T12:37:33.175Z,18.42863948072927
2022-11-05T12:41:23.931Z,18.41258111301722
2022-11-05T12:44:32.899Z,18.42671247645376
2022-11-05T12:47:34.706Z,18.421573798585815
2022-11-05T12:51:38.015Z,18.44341318153456
2022-11-05T12:54:27.883Z,18.42928181549687
2022-11-05T12:57:22.345Z,18.494157650448415
2022-11-05T13:01:21.262Z,18.43763216788948
2022-11-05T13:04:28.125Z,18.44469785128349
2022-11-05T13:07:23.428Z,18.453690540035314
2022-11-05T13:11:21.822Z,18.418362125066142
2022-11-05T13:14:27.091Z,18.42221613330339
2022-11-05T13:17:20.191Z,18.418362125066142
2022-11-05T13:21:28.184Z,18.380464386119638
2022-11-05T13:24:22.904Z,18.38110672054618
2022-11-05T13:27:41.302Z,18.35605568128085
2022-11-05T13:31:21.668Z,18.328435312672173
2022-11-05T13:34:16.984Z,18.302741954073372
2022-11-05T13:41:27.013Z,18.273836934346765
2022-11-05T13:44:56.117Z,18.258420927591214
2022-11-05T13:47:32.744Z,18.32136963833218
2022-11-05T13:51:53.183Z,18.35284401008039
2022-11-05T14:01:34.310Z,18.389457068505
2022-11-05T14:04:35.725Z,18.466537239798345
2022-11-05T14:07:19.965Z,18.465252569740187
2022-11-05T14:11:21.267Z,18.548113825741986
2022-11-05T14:14:20.179Z,18.636113847146042
2022-11-05T14:17:27.341Z,18.704201513514636
2022-11-05T14:21:46.487Z,18.796698047794415
2022-11-05T14:24:26.293Z,18.854508429604174
2022-11-05T14:28:03.907Z,18.91360352463671
2022-11-05T14:32:07.131Z,18.99389583499733
2022-11-05T14:34:40.467Z,19.04078657711252
2022-11-05T14:37:25.635Z,19.053633360003367
2022-11-05T14:41:17.429Z,19.090246701221712
2022-11-05T14:44:16.844Z,19.076115234439293
2022-11-05T14:47:20.884Z,19.06134143061099
2022-11-05T14:51:25.682Z,18.99389583499733
2022-11-05T14:54:24.522Z,18.92773496610789
2022-11-05T14:58:01.505Z,18.836522973538376
2022-11-05T15:02:14.432Z,18.792201686308637
2022-11-05T15:04:25.118Z,18.60142769713166
2022-11-05T15:07:36.505Z,18.493515315221522
2022-11-05T15:11:22.234Z,18.427354811207714
2022-11-05T15:14:22.085Z,18.388172399538234
2022-11-05T15:17:21.674Z,18.313019296639776
2022-11-05T15:21:18.866Z,18.199968592437745
2022-11-05T15:24:18.988Z,18.109399663996008
2022-11-05T15:27:30.176Z,18.046451100320336
2022-11-05T15:31:25.584Z,18.020115489699766
2022-11-05T15:34:21.903Z,17.873021609989518
2022-11-05T15:37:22.501Z,17.784379998507575
2022-11-05T15:41:19.968Z,17.738774565470614
2022-11-05T15:44:26.606Z,17.680322565097594
2022-11-05T15:47:20.464Z,17.580761552258718
2022-11-05T15:51:16.874Z,17.49340488259195
2022-11-05T15:54:30.828Z,17.346954183911386
2022-11-05T15:57:24.551Z,17.23647398870826
2022-11-05T16:01:21.767Z,17.17481068244242
2022-11-05T16:04:20.595Z,17.057907446022092
2022-11-05T16:07:18.292Z,16.985324743160525
2022-11-05T16:11:22.897Z,16.84594042349645
2022-11-05T16:14:19.595Z,16.826670718732295
2022-11-05T16:17:23.214Z,16.61855816806792
2022-11-05T16:21:27.036Z,16.67957877389017
2022-11-05T16:24:26.617Z,16.50679421751274
2022-11-05T16:27:21.140Z,16.532487067522105
2022-11-05T16:31:23.126Z,16.38282631846523
2022-11-05T16:34:29.119Z,16.236377412453294
2022-11-05T16:37:21.496Z,16.201049860867442
2022-11-05T16:41:20.189Z,16.190772757534525
2022-11-05T16:44:17.040Z,15.987800205251641
2022-11-05T16:47:17.866Z,15.897875801927238
2022-11-05T16:51:17.456Z,15.828505608833893
2022-11-05T16:54:17.363Z,15.75528157366798
2022-11-05T16:57:23.556Z,15.775835682835986
2022-11-05T17:01:19.233Z,15.702611690179856
2022-11-05T17:04:16.754Z,15.531113622890917
2022-11-05T17:07:17.587Z,15.529186680156362
2022-11-05T17:11:19.734Z,15.396870043610487
2022-11-05T17:14:16.845Z,15.404577803552911
2022-11-05T17:17:16.835Z,15.400723923499845
2022-11-05T17:21:17.335Z,15.375673707145324
2022-11-05T17:24:17.579Z,15.25556122738426
2022-11-05T17:27:16.898Z,15.251707353661278
2022-11-05T17:31:17.513Z,15.102691028585923
2022-11-05T17:34:16.937Z,14.991571255834788
2022-11-05T17:37:17.710Z,14.978725048108391
2022-11-05T17:41:19.188Z,14.887517025556008
2022-11-05T17:44:17.299Z,14.778324443099336
2022-11-05T17:47:17.010Z,14.645366593665766
2022-11-05T17:51:18.318Z,14.693539705008515
2022-11-05T17:54:16.520Z,14.610681969337838
2022-11-05T17:57:17.109Z,14.387159152866753
2022-11-05T18:01:25.582Z,14.44111288573049
2022-11-05T18:04:17.196Z,14.332563146321627
2022-11-05T18:07:17.858Z,14.324855477456003
2022-11-05T18:11:17.952Z,14.268332592450315
2022-11-05T18:14:22.803Z,14.20153286466375
2022-11-05T18:17:16.876Z,14.05380287211192
2022-11-05T18:21:16.483Z,14.134090881699468
2022-11-05T18:24:18.866Z,13.985718695656397
2022-11-05T18:27:19.735Z,13.893227066099644
2022-11-05T18:31:18.751Z,13.943326687071021
2022-11-05T18:34:16.969Z,13.816150780167664
2022-11-05T18:37:17.041Z,13.83285063656258
2022-11-05T18:41:18.357Z,13.748066782064052
2022-11-05T18:44:17.042Z,13.687690449133516
2022-11-05T18:47:17.421Z,13.634379465162146
2022-11-05T18:51:17.375Z,13.593272221804455
2022-11-05T18:54:17.046Z,13.536107492471638
2022-11-05T18:57:17.352Z,13.509130891139284
2022-11-05T19:01:18.272Z,13.481511998085717
2022-11-05T19:04:16.562Z,13.264414945495172
2022-11-05T19:07:16.283Z,13.377459499766791
2022-11-05T19:11:20.021Z,13.250284386115618
2022-11-05T19:14:17.031Z,13.2515689823319
2022-11-05T19:17:17.098Z,13.142378368885783
2022-11-05T19:21:20.281Z,13.16614337356441
2022-11-05T19:24:17.497Z,13.128247828514668
2022-11-05T19:27:17.743Z,12.998503878898282
2022-11-05T19:31:19.223Z,13.004926842335498
2022-11-05T19:34:17.467Z,12.88417520580415
2022-11-05T19:37:18.079Z,12.920143761580494
2022-11-05T19:41:18.771Z,12.857841093653406
2022-11-05T19:44:18.612Z,12.7846194561429
2022-11-05T19:47:18.687Z,12.721032292566907
2022-11-05T19:51:19.726Z,12.719105409517942
2022-11-05T19:54:17.355Z,12.61441149204702
2022-11-05T19:57:17.195Z,12.597711859942592
2022-11-05T20:01:18.571Z,12.602207914437532
2022-11-05T20:04:17.619Z,12.534767120410198
2022-11-05T20:07:17.191Z,12.518067502966824
2022-11-05T20:11:16.262Z,12.540547757933746
2022-11-05T20:14:17.697Z,12.48595286267746
2022-11-05T20:17:17.556Z,12.440992385371738
2022-11-05T20:21:16.878Z,12.446130724507475
2022-11-05T20:24:24.060Z,12.44805760175841
2022-11-05T20:27:17.245Z,12.28106172527514
2022-11-05T20:31:17.811Z,12.372267127409577
2022-11-05T20:34:17.507Z,12.31060712719336
2022-11-05T20:37:18.204Z,12.307395669997003
2022-11-05T20:41:17.299Z,12.296476716379766
2022-11-05T20:44:17.636Z,12.287484637917078
2022-11-05T20:47:17.022Z,12.270142774827491
2022-11-05T20:51:20.071Z,12.280419434035958
2022-11-05T20:54:18.175Z,12.300330464565196
2022-11-05T20:57:18.624Z,12.268215901355507
2022-11-05T21:01:33.227Z,12.272711939520468
2022-11-05T21:04:17.691Z,12.204629099740213
2022-11-05T21:07:17.529Z,12.234174476765565
2022-11-05T21:11:17.374Z,12.282988599019973
2022-11-05T21:14:17.242Z,12.241239677045087
2022-11-05T21:17:18.294Z,12.236101349514502
2022-11-05T21:21:18.586Z,12.3279489980182
2022-11-05T21:24:17.430Z,12.28106172527514
2022-11-05T21:27:17.303Z,12.256012370316693
2022-11-05T21:31:16.559Z,12.294549842348442
2022-11-05T21:34:17.914Z,12.350429205873297
2022-11-05T21:37:17.090Z,12.33694108049176
2022-11-05T21:41:16.777Z,12.370982543644278
2022-11-05T21:44:17.015Z,12.371624835524653
2022-11-05T21:47:16.952Z,12.354925248112796
2022-11-05T22:01:17.171Z,12.373551711193068
2022-11-05T22:04:17.136Z,12.358778998781144
2022-11-05T22:07:19.165Z,12.356852123426506
2022-11-05T22:11:16.009Z,12.358778998781144
2022-11-05T22:14:16.904Z,12.369697959897167
2022-11-05T22:17:17.032Z,12.383828382115826
2022-11-05T22:21:17.578Z,12.394105054202736
2022-11-05T22:24:18.181Z,12.363275041434463
2022-11-05T22:27:18.985Z,12.416585278451475
2022-11-05T22:31:16.913Z,12.46732637651876
2022-11-05T22:34:17.420Z,12.387682134011992
2022-11-05T22:37:16.842Z,12.419796739513185
2022-11-05T22:41:20.305Z,12.430073415674633
2022-11-05T22:44:17.613Z,12.408235480223084
2022-11-05T22:47:18.433Z,12.381901506229132
2022-11-05T22:51:18.545Z,12.442276970128386
2022-11-05T22:54:17.034Z,12.423008200688582
2022-11-05T22:57:16.582Z,12.398601098606832
2022-11-05T23:01:17.491Z,12.392178178097765
